Time;durP1;ratioP1;P1;durP2;ratioP2;P2;SDS_P1;SDS_P2;PMS_P1;PMS_P2;Temp;Humidity;BMP_temperature;BMP_pressure;BME280_temperature;BME280_humidity;BME280_pressure;Samples;Min_cycle;Max_cycle;Signal;HPM_P1;HPM_P2
2021/12/26 00:00:30;;;;;;;3.97;3.15;;;16.80;99.70;;;;;;4179917;28;20289;-74
2021/12/26 00:02:32;;;;;;;4.50;3.55;;;16.80;99.70;;;;;;4179987;28;20215;-73
2021/12/26 00:04:35;;;;;;;3.65;3.35;;;16.70;99.70;;;;;;4179581;28;20266;-74
2021/12/26 00:06:37;;;;;;;3.75;3.03;;;16.80;99.70;;;;;;4179843;28;20262;-74
2021/12/26 00:08:41;;;;;;;3.65;3.00;;;16.80;99.70;;;;;;4179870;28;20668;-74
2021/12/26 00:10:43;;;;;;;4.10;2.95;;;16.80;99.70;;;;;;4179506;28;20262;-74
2021/12/26 00:12:46;;;;;;;4.53;3.65;;;16.80;99.70;;;;;;4179831;28;20261;-74
2021/12/26 00:14:49;;;;;;;3.85;3.25;;;16.80;99.60;;;;;;4179619;28;20726;-74
2021/12/26 00:16:52;;;;;;;4.35;2.92;;;16.70;99.60;;;;;;4179652;28;20216;-74
2021/12/26 00:18:54;;;;;;;3.67;3.13;;;16.70;99.60;;;;;;4179432;28;20223;-74
2021/12/26 00:20:57;;;;;;;4.28;3.47;;;16.70;99.60;;;;;;4179790;28;20298;-74
2021/12/26 00:22:59;;;;;;;3.78;3.17;;;16.80;99.60;;;;;;4179950;28;20278;-74
2021/12/26 00:25:02;;;;;;;4.00;3.38;;;16.70;99.60;;;;;;4179453;28;20215;-74
2021/12/26 00:27:05;;;;;;;4.65;3.60;;;16.70;99.50;;;;;;4179822;28;20657;-74
2021/12/26 00:29:07;;;;;;;4.53;3.63;;;16.70;99.50;;;;;;4179401;28;20223;-74
2021/12/26 00:31:11;;;;;;;3.53;2.88;;;16.70;99.50;;;;;;4179305;28;20258;-74
2021/12/26 00:33:14;;;;;;;4.00;3.58;;;16.70;99.50;;;;;;4175202;28;20232;-74
2021/12/26 00:35:19;;;;;;;3.55;2.97;;;16.70;99.50;;;;;;4176989;28;20262;-74
2021/12/26 00:37:21;;;;;;;4.47;2.75;;;16.70;99.50;;;;;;4182699;28;20216;-73
2021/12/26 00:39:23;;;;;;;4.07;3.35;;;16.70;99.50;;;;;;4182251;28;20212;-74
2021/12/26 00:41:25;;;;;;;4.18;3.17;;;16.70;99.90;;;;;;4182250;28;20216;-74
2021/12/26 00:43:28;;;;;;;4.47;3.10;;;16.70;99.50;;;;;;4182707;28;20568;-74
2021/12/26 00:45:31;;;;;;;4.30;2.90;;;16.70;99.50;;;;;;4182295;28;20212;-74
2021/12/26 00:47:36;;;;;;;4.88;3.17;;;16.70;99.50;;;;;;4182327;28;20224;-74
2021/12/26 00:49:38;;;;;;;4.13;3.20;;;16.60;99.40;;;;;;4182419;28;20868;-74
2021/12/26 00:51:41;;;;;;;3.97;2.88;;;16.70;99.50;;;;;;4182646;28;20562;-74
2021/12/26 00:53:43;;;;;;;5.55;3.25;;;16.70;99.50;;;;;;4182153;28;20331;-74
2021/12/26 00:55:46;;;;;;;5.35;2.97;;;16.60;99.40;;;;;;4182451;28;20245;-73
2021/12/26 00:57:48;;;;;;;3.75;2.97;;;16.60;99.40;;;;;;4182079;28;20219;-74
2021/12/26 00:59:51;;;;;;;4.78;3.22;;;16.60;99.40;;;;;;4182210;28;20266;-74
2021/12/26 01:01:54;;;;;;;3.92;3.08;;;16.60;99.40;;;;;;4182322;28;20242;-74
2021/12/26 01:03:58;;;;;;;4.15;3.15;;;16.60;99.40;;;;;;4182153;28;20220;-74
2021/12/26 01:06:00;;;;;;;4.40;3.10;;;16.60;99.30;;;;;;4182072;28;20634;-74
2021/12/26 01:08:05;;;;;;;3.95;2.85;;;16.60;99.30;;;;;;4182276;28;20270;-74
2021/12/26 01:10:08;;;;;;;4.07;3.10;;;16.60;99.30;;;;;;4181936;28;20273;-74
2021/12/26 01:12:14;;;;;;;5.32;3.33;;;16.60;99.30;;;;;;4181836;28;20622;-74
2021/12/26 01:14:25;;;;;;;4.03;2.63;;;16.60;99.30;;;;;;4181921;28;20738;-74
2021/12/26 01:16:28;;;;;;;3.63;3.10;;;16.60;99.40;;;;;;4182004;28;20668;-74
2021/12/26 01:18:33;;;;;;;5.10;3.55;;;16.50;99.20;;;;;;4182345;28;20664;-74
2021/12/26 01:20:46;;;;;;;5.43;3.08;;;16.60;99.30;;;;;;4181882;28;20239;-74
2021/12/26 01:22:48;;;;;;;4.03;3.20;;;16.50;99.30;;;;;;4181777;28;20262;-74
2021/12/26 01:24:55;;;;;;;4.38;3.03;;;16.60;99.30;;;;;;4182204;28;20668;-74
2021/12/26 01:26:58;;;;;;;4.18;2.97;;;16.60;99.40;;;;;;4182080;28;20746;-74
2021/12/26 01:29:01;;;;;;;5.30;3.03;;;16.60;99.30;;;;;;4181790;28;20714;-74
2021/12/26 01:31:04;;;;;;;5.13;3.03;;;16.50;99.30;;;;;;4181674;28;20212;-74
2021/12/26 01:33:07;;;;;;;3.55;2.78;;;16.50;99.20;;;;;;4181270;28;20232;-74
2021/12/26 01:35:10;;;;;;;4.40;2.88;;;16.50;99.60;;;;;;4181545;28;20265;-74
2021/12/26 01:37:14;;;;;;;4.25;3.00;;;16.50;99.20;;;;;;4181850;28;20269;-74
2021/12/26 01:39:17;;;;;;;5.07;3.25;;;16.50;99.30;;;;;;4181605;28;20286;-74
2021/12/26 01:41:19;;;;;;;4.57;3.40;;;16.50;99.30;;;;;;4181398;28;20228;-74
2021/12/26 01:43:24;;;;;;;4.45;2.88;;;16.50;99.30;;;;;;4181399;28;20664;-74
2021/12/26 01:45:27;;;;;;;5.00;3.53;;;16.50;99.30;;;;;;4181402;28;20211;-74
2021/12/26 01:47:29;;;;;;;3.90;2.90;;;16.50;99.20;;;;;;4180262;28;20220;-74
2021/12/26 01:49:33;;;;;;;4.82;3.35;;;16.50;99.20;;;;;;4181560;28;20215;-74
2021/12/26 01:51:35;;;;;;;4.80;3.15;;;16.50;99.30;;;;;;4181633;28;20343;-74
2021/12/26 01:53:40;;;;;;;4.72;3.15;;;16.50;99.20;;;;;;4181478;28;20630;-74
2021/12/26 01:55:45;;;;;;;4.40;3.17;;;16.50;99.20;;;;;;4181461;28;20212;-74
2021/12/26 01:57:48;;;;;;;4.63;3.22;;;16.50;99.20;;;;;;4181313;28;20265;-74
2021/12/26 01:59:50;;;;;;;4.35;2.95;;;16.50;99.20;;;;;;4181105;28;20915;-74
2021/12/26 02:01:55;;;;;;;4.65;2.85;;;16.50;99.20;;;;;;4181254;28;20642;-74
2021/12/26 02:03:58;;;;;;;3.88;3.10;;;16.50;99.20;;;;;;4181213;28;20219;-73
2021/12/26 02:06:00;;;;;;;4.82;3.13;;;16.50;99.30;;;;;;4180955;28;20220;-73
2021/12/26 02:08:03;;;;;;;4.68;2.97;;;16.50;99.30;;;;;;4181142;28;20281;-74
2021/12/26 02:10:08;;;;;;;6.10;3.67;;;16.50;99.20;;;;;;4181308;28;20338;-74
2021/12/26 02:12:11;;;;;;;5.93;3.30;;;16.40;99.20;;;;;;4181280;28;20270;-74
2021/12/26 02:14:13;;;;;;;5.55;3.50;;;16.40;99.20;;;;;;4180910;28;20215;-74
2021/12/26 02:16:16;;;;;;;3.67;2.78;;;16.50;99.20;;;;;;4181017;28;20219;-74
2021/12/26 02:18:19;;;;;;;6.93;3.58;;;16.40;99.20;;;;;;4180981;28;20219;-74
2021/12/26 02:20:34;;;;;;;4.05;2.88;;;16.40;99.20;;;;;;4180961;28;20266;-74
2021/12/26 02:22:39;;;;;;;5.40;3.15;;;16.50;99.20;;;;;;4174908;28;20259;-74
2021/12/26 02:29:19;;;;;;;4.32;2.97;;;16.40;99.20;;;;;;4181500;28;20587;-74
2021/12/26 02:31:22;;;;;;;4.85;3.20;;;16.40;99.10;;;;;;4180791;28;20212;-74
2021/12/26 02:33:24;;;;;;;4.22;3.08;;;16.40;99.20;;;;;;4164832;28;20283;-74
2021/12/26 02:35:28;;;;;;;5.82;3.10;;;16.40;99.20;;;;;;4164177;28;20216;-74
2021/12/26 02:37:30;;;;;;;5.68;3.72;;;16.40;99.20;;;;;;4164201;28;20620;-74
2021/12/26 02:39:33;;;;;;;5.05;3.15;;;16.40;99.30;;;;;;4164386;28;20212;-73
2021/12/26 02:41:35;;;;;;;5.55;3.33;;;16.40;99.20;;;;;;4164171;28;20240;-74
2021/12/26 02:43:38;;;;;;;4.10;2.80;;;16.40;99.20;;;;;;4164178;28;20220;-74
2021/12/26 02:45:40;;;;;;;5.18;3.28;;;16.40;99.20;;;;;;4163874;28;20270;-74
2021/12/26 02:47:44;;;;;;;5.22;2.95;;;16.40;99.30;;;;;;4164212;28;20270;-74
2021/12/26 02:49:48;;;;;;;4.90;3.03;;;16.40;99.20;;;;;;4164104;28;20274;-74
2021/12/26 02:51:52;;;;;;;6.10;3.25;;;16.40;99.10;;;;;;4163487;28;20254;-74
2021/12/26 02:53:55;;;;;;;6.10;3.58;;;16.40;99.20;;;;;;4164139;28;20270;-74
2021/12/26 02:55:59;;;;;;;3.88;3.10;;;16.40;99.20;;;;;;4164200;28;20224;-74
2021/12/26 02:58:04;;;;;;;4.95;3.22;;;16.40;99.20;;;;;;4163889;28;20216;-74
2021/12/26 03:00:10;;;;;;;4.38;3.05;;;16.30;99.20;;;;;;4164025;28;20208;-74
2021/12/26 03:02:12;;;;;;;4.38;2.83;;;16.40;99.20;;;;;;4163843;28;20232;-74
2021/12/26 03:04:15;;;;;;;5.05;3.38;;;16.30;99.20;;;;;;4163601;28;20266;-73
2021/12/26 03:06:25;;;;;;;5.50;3.30;;;16.30;99.20;;;;;;4163643;28;20216;-74
2021/12/26 03:08:29;;;;;;;6.80;3.22;;;16.30;99.60;;;;;;4163644;28;20216;-74
2021/12/26 03:10:31;;;;;;;4.85;3.28;;;16.30;99.20;;;;;;4163515;28;20216;-74
2021/12/26 03:12:33;;;;;;;4.00;3.00;;;16.30;99.20;;;;;;4163949;28;20212;-74
2021/12/26 03:14:36;;;;;;;5.17;3.13;;;16.30;99.20;;;;;;4163736;28;20266;-74
2021/12/26 03:16:45;;;;;;;5.07;2.92;;;16.30;99.20;;;;;;4163779;28;20286;-74
2021/12/26 03:18:47;;;;;;;4.20;3.15;;;16.30;99.20;;;;;;4163763;28;20216;-74
2021/12/26 03:20:51;;;;;;;5.43;3.60;;;16.30;99.20;;;;;;4163786;28;20270;-74
2021/12/26 03:22:54;;;;;;;5.63;3.10;;;16.30;99.30;;;;;;4164066;28;20266;-74
2021/12/26 03:24:57;;;;;;;7.00;3.17;;;16.40;99.30;;;;;;4163503;28;20283;-74
2021/12/26 03:27:00;;;;;;;4.10;3.20;;;16.30;99.20;;;;;;4163496;28;20661;-74
2021/12/26 03:29:03;;;;;;;4.97;3.40;;;16.30;99.20;;;;;;4163689;28;20607;-73
2021/12/26 03:31:06;;;;;;;5.15;3.53;;;16.30;99.20;;;;;;4163313;28;20271;-73
2021/12/26 03:33:10;;;;;;;4.35;3.30;;;16.30;99.20;;;;;;4176597;28;20231;-74
2021/12/26 03:35:13;;;;;;;5.90;3.58;;;16.30;99.30;;;;;;4179916;28;20265;-74
2021/12/26 03:37:15;;;;;;;5.72;3.33;;;16.30;99.20;;;;;;4180272;28;20215;-74
2021/12/26 03:39:18;;;;;;;4.83;3.10;;;16.30;99.20;;;;;;4180041;28;20223;-73
2021/12/26 03:41:22;;;;;;;5.15;3.17;;;16.30;99.30;;;;;;4179729;28;20263;-74
2021/12/26 03:43:26;;;;;;;5.15;2.92;;;16.30;99.30;;;;;;4180123;28;20703;-74
2021/12/26 03:45:28;;;;;;;6.65;3.80;;;16.30;99.20;;;;;;4179874;28;20215;-74
2021/12/26 03:47:31;;;;;;;4.13;3.00;;;16.30;99.30;;;;;;4179620;28;20301;-74
2021/12/26 03:49:34;;;;;;;4.57;3.05;;;16.30;99.20;;;;;;4179756;28;20219;-74
2021/12/26 03:51:37;;;;;;;5.18;3.15;;;16.30;99.20;;;;;;4180346;28;20723;-74
2021/12/26 03:53:39;;;;;;;5.00;3.10;;;16.30;99.30;;;;;;4180008;28;20270;-74
2021/12/26 03:55:42;;;;;;;5.85;3.60;;;16.20;99.20;;;;;;4180189;28;20212;-74
2021/12/26 03:57:46;;;;;;;4.88;3.30;;;16.20;99.20;;;;;;4179741;28;20246;-74
2021/12/26 03:59:48;;;;;;;5.13;3.40;;;16.20;99.30;;;;;;4179815;28;20219;-74
2021/12/26 04:01:50;;;;;;;5.53;3.40;;;16.20;99.30;;;;;;4179619;28;20235;-74
2021/12/26 04:03:53;;;;;;;5.85;3.35;;;16.20;99.30;;;;;;4180319;28;20982;-73
2021/12/26 04:05:55;;;;;;;6.10;3.63;;;16.20;99.60;;;;;;4180233;28;20188;-74
2021/12/26 04:07:57;;;;;;;4.90;2.83;;;16.20;99.30;;;;;;4179697;28;20212;-74
2021/12/26 04:10:00;;;;;;;4.25;3.50;;;16.20;99.30;;;;;;4173481;28;20282;-74
2021/12/26 04:12:02;;;;;;;4.43;3.20;;;16.20;99.70;;;;;;4176855;28;20203;-74
2021/12/26 04:14:06;;;;;;;5.45;3.75;;;16.20;99.60;;;;;;4179926;28;20933;-74
2021/12/26 04:16:08;;;;;;;5.50;3.30;;;16.20;99.30;;;;;;4177769;28;20951;-74
2021/12/26 04:18:11;;;;;;;5.25;3.20;;;16.20;99.30;;;;;;4180128;28;20220;-73
2021/12/26 04:20:14;;;;;;;6.75;3.03;;;16.20;99.30;;;;;;4179833;28;20212;-74
2021/12/26 04:22:16;;;;;;;4.60;3.25;;;16.20;99.20;;;;;;4179741;28;20294;-74
2021/12/26 04:24:19;;;;;;;5.07;3.33;;;16.20;99.30;;;;;;4179068;28;20207;-74
2021/12/26 04:26:21;;;;;;;4.10;3.10;;;16.20;99.30;;;;;;4179753;28;20255;-74
2021/12/26 04:28:23;;;;;;;4.43;3.25;;;16.20;99.30;;;;;;4179442;28;20224;-74
2021/12/26 04:30:27;;;;;;;4.53;3.17;;;16.20;99.30;;;;;;4179922;28;20281;-74
2021/12/26 04:32:30;;;;;;;4.68;3.00;;;16.20;99.30;;;;;;4174267;28;20239;-74
2021/12/26 04:34:33;;;;;;;4.85;3.20;;;16.20;99.30;;;;;;4169660;28;20269;-74
2021/12/26 04:36:35;;;;;;;4.43;3.05;;;16.20;99.30;;;;;;4169518;28;20266;-74
2021/12/26 04:38:39;;;;;;;6.22;3.20;;;16.10;99.60;;;;;;4168449;28;20208;-74
2021/12/26 04:40:41;;;;;;;5.22;3.13;;;16.20;99.30;;;;;;4169773;28;20220;-74
2021/12/26 04:42:45;;;;;;;5.55;3.33;;;16.20;99.30;;;;;;4169298;28;20752;-74
2021/12/26 04:44:49;;;;;;;4.10;2.92;;;16.10;99.30;;;;;;4168801;28;20208;-74
2021/12/26 04:46:53;;;;;;;4.78;3.42;;;16.10;99.20;;;;;;4168015;28;20216;-74
2021/12/26 04:48:55;;;;;;;4.37;2.90;;;16.10;99.30;;;;;;4167059;28;20224;-74
2021/12/26 04:50:57;;;;;;;4.05;2.83;;;16.10;99.60;;;;;;4167214;28;20613;-74
2021/12/26 04:53:00;;;;;;;4.85;3.20;;;16.10;99.30;;;;;;4165172;28;20228;-74
2021/12/26 04:55:02;;;;;;;5.30;3.25;;;16.10;99.30;;;;;;4166761;28;20221;-74
2021/12/26 04:57:06;;;;;;;3.97;2.92;;;16.10;99.30;;;;;;4168442;28;20220;-74
2021/12/26 04:59:08;;;;;;;4.90;3.40;;;16.10;99.30;;;;;;4170843;28;20595;-74
2021/12/26 05:01:10;;;;;;;3.55;2.83;;;16.10;99.30;;;;;;4167332;28;20252;-74
2021/12/26 05:03:14;;;;;;;5.32;3.13;;;16.10;99.60;;;;;;4166556;28;20240;-74
2021/12/26 05:05:17;;;;;;;5.15;3.53;;;16.00;99.20;;;;;;4167106;28;20216;-74
2021/12/26 05:07:19;;;;;;;4.68;2.97;;;16.10;99.70;;;;;;4169953;28;20232;-74
2021/12/26 05:09:22;;;;;;;3.42;2.72;;;16.10;99.30;;;;;;4168592;28;20228;-74
2021/12/26 05:11:24;;;;;;;4.00;2.80;;;16.10;99.30;;;;;;4166704;28;20265;-74
2021/12/26 05:13:26;;;;;;;4.35;3.15;;;16.10;99.30;;;;;;4165392;28;20212;-74
2021/12/26 05:15:29;;;;;;;4.10;2.88;;;16.10;99.30;;;;;;4164796;28;20269;-74
2021/12/26 05:17:32;;;;;;;3.72;2.72;;;16.10;99.30;;;;;;4165871;28;20224;-74
2021/12/26 05:19:35;;;;;;;4.80;3.25;;;16.10;99.30;;;;;;4165918;28;20228;-74
2021/12/26 05:21:37;;;;;;;4.97;3.00;;;16.10;99.40;;;;;;4165670;28;20271;-74
2021/12/26 05:23:40;;;;;;;3.47;2.65;;;16.10;99.30;;;;;;4170628;28;20283;-74
2021/12/26 05:25:42;;;;;;;3.42;2.42;;;16.10;99.30;;;;;;4170334;28;20216;-74
2021/12/26 05:27:44;;;;;;;4.05;2.88;;;16.00;99.30;;;;;;4168017;28;20271;-74
2021/12/26 05:29:47;;;;;;;4.28;3.03;;;16.10;99.40;;;;;;4169164;28;21086;-74
2021/12/26 05:31:49;;;;;;;5.13;2.88;;;16.10;99.40;;;;;;4171386;28;20216;-74
2021/12/26 05:33:52;;;;;;;3.72;2.60;;;16.00;99.30;;;;;;4186893;28;20652;-74
2021/12/26 05:35:55;;;;;;;4.22;3.22;;;16.00;99.30;;;;;;4186507;28;20261;-74
2021/12/26 05:37:58;;;;;;;3.80;2.80;;;16.00;99.40;;;;;;4183452;28;20671;-74
2021/12/26 05:40:02;;;;;;;4.68;3.00;;;16.10;99.30;;;;;;4186227;28;20214;-74
2021/12/26 05:42:05;;;;;;;4.05;3.00;;;16.00;99.20;;;;;;4186260;28;20607;-74
2021/12/26 05:44:08;;;;;;;4.97;3.10;;;16.00;99.30;;;;;;4183759;28;20242;-74
2021/12/26 05:46:10;;;;;;;4.53;2.83;;;16.00;99.30;;;;;;4185817;28;20215;-74
2021/12/26 05:48:13;;;;;;;4.53;3.30;;;16.00;99.30;;;;;;4185970;28;20219;-74
2021/12/26 05:50:17;;;;;;;3.65;2.72;;;16.00;99.40;;;;;;4185988;28;20288;-74
2021/12/26 05:52:21;;;;;;;3.77;2.60;;;16.00;99.40;;;;;;4184846;28;20223;-74
2021/12/26 05:54:23;;;;;;;4.43;2.72;;;16.00;99.30;;;;;;4185221;28;20264;-74
2021/12/26 05:56:26;;;;;;;3.28;2.65;;;16.00;99.30;;;;;;4184863;28;20242;-74
2021/12/26 05:58:28;;;;;;;4.68;3.10;;;16.00;99.70;;;;;;4184790;28;20212;-74
2021/12/26 06:00:30;;;;;;;3.33;2.58;;;16.00;99.30;;;;;;4184208;28;20242;-74
2021/12/26 06:02:32;;;;;;;3.53;2.50;;;16.00;99.30;;;;;;4183575;28;20228;-74
2021/12/26 06:04:35;;;;;;;3.63;2.83;;;16.00;99.40;;;;;;4178287;28;20609;-74
2021/12/26 06:06:37;;;;;;;4.40;2.78;;;16.00;99.50;;;;;;4181034;28;20223;-74
2021/12/26 06:08:41;;;;;;;4.50;2.50;;;16.00;99.40;;;;;;4183368;28;20258;-74
2021/12/26 06:10:44;;;;;;;3.08;2.38;;;16.00;99.40;;;;;;4184057;28;20250;-74
2021/12/26 06:12:46;;;;;;;3.42;2.40;;;16.00;99.40;;;;;;4183420;28;20265;-74
2021/12/26 06:14:49;;;;;;;3.70;2.72;;;16.00;99.50;;;;;;4183319;28;20237;-74
2021/12/26 06:16:52;;;;;;;4.22;2.78;;;16.00;99.50;;;;;;4183205;28;20273;-74
2021/12/26 06:18:54;;;;;;;3.40;2.58;;;16.00;99.40;;;;;;4183519;28;20265;-74
2021/12/26 06:20:56;;;;;;;3.40;2.60;;;16.00;99.40;;;;;;4181800;28;20224;-74
2021/12/26 06:22:59;;;;;;;3.70;2.40;;;16.00;99.40;;;;;;4182384;28;20238;-74
2021/12/26 06:25:02;;;;;;;3.00;2.40;;;16.00;99.50;;;;;;4182165;28;20268;-74
2021/12/26 06:27:05;;;;;;;3.28;2.38;;;16.00;99.40;;;;;;4180686;28;20265;-74
2021/12/26 06:29:08;;;;;;;3.95;2.53;;;16.00;99.40;;;;;;4182007;28;20219;-74
2021/12/26 06:31:11;;;;;;;3.20;2.35;;;16.00;99.40;;;;;;4182114;28;20215;-74
2021/12/26 06:33:13;;;;;;;2.70;2.50;;;16.00;99.50;;;;;;4176524;28;20627;-74
2021/12/26 06:35:16;;;;;;;3.63;2.60;;;16.00;99.50;;;;;;4177549;28;20746;-74
2021/12/26 06:37:18;;;;;;;4.05;2.90;;;16.00;99.50;;;;;;4177115;28;20219;-74
2021/12/26 06:39:20;;;;;;;2.92;2.45;;;16.00;99.50;;;;;;4176054;28;20274;-74
2021/12/26 06:41:26;;;;;;;2.88;2.42;;;16.00;99.50;;;;;;4176476;28;20289;-74
2021/12/26 06:43:29;;;;;;;3.20;2.42;;;16.00;99.60;;;;;;4176661;28;20237;-74
2021/12/26 06:45:31;;;;;;;3.53;2.67;;;15.90;99.50;;;;;;4178071;28;20269;-74
2021/12/26 06:47:34;;;;;;;2.97;2.17;;;15.90;99.40;;;;;;4177891;28;20216;-74
2021/12/26 06:49:36;;;;;;;2.77;2.30;;;16.00;99.60;;;;;;4178052;28;20269;-74
2021/12/26 06:51:38;;;;;;;3.60;2.80;;;16.00;99.60;;;;;;4177719;28;20212;-74
2021/12/26 06:53:41;;;;;;;2.70;2.40;;;16.00;99.50;;;;;;4177458;28;20212;-74
2021/12/26 06:55:43;;;;;;;3.23;2.63;;;16.00;99.50;;;;;;4177821;28;20211;-74
2021/12/26 06:57:47;;;;;;;3.42;2.30;;;16.00;99.60;;;;;;4177393;28;20305;-74
2021/12/26 06:59:50;;;;;;;4.25;2.80;;;15.90;99.50;;;;;;4177282;28;20220;-74
2021/12/26 07:01:52;;;;;;;4.47;2.85;;;15.90;99.90;;;;;;4176029;28;20224;-74
2021/12/26 07:03:55;;;;;;;2.63;2.00;;;15.90;99.90;;;;;;4176235;28;20307;-74
2021/12/26 07:05:57;;;;;;;2.20;2.00;;;16.00;99.60;;;;;;4176709;28;20215;-74
2021/12/26 07:07:59;;;;;;;3.03;2.33;;;15.90;99.60;;;;;;4177289;28;20216;-74
2021/12/26 07:10:02;;;;;;;4.20;2.72;;;15.90;99.60;;;;;;4176684;28;20623;-74
2021/12/26 07:12:05;;;;;;;3.15;2.50;;;15.90;99.60;;;;;;4177022;28;20348;-74
2021/12/26 07:14:08;;;;;;;2.70;2.22;;;15.90;99.60;;;;;;4176807;28;20599;-74
2021/12/26 07:16:11;;;;;;;3.20;2.60;;;15.90;99.60;;;;;;4177095;28;20223;-74
2021/12/26 07:18:13;;;;;;;2.10;1.90;;;15.90;99.60;;;;;;4179587;28;20262;-74
2021/12/26 07:20:16;;;;;;;3.20;2.33;;;15.90;99.60;;;;;;4175012;28;20216;-74
2021/12/26 07:22:18;;;;;;;3.88;2.60;;;15.90;99.60;;;;;;4177242;28;20212;-74
2021/12/26 07:24:21;;;;;;;4.47;2.25;;;15.90;99.60;;;;;;4180125;28;20243;-73
2021/12/26 07:26:24;;;;;;;3.05;2.38;;;15.90;99.60;;;;;;4180287;28;20622;-74
2021/12/26 07:28:26;;;;;;;2.63;2.22;;;15.90;99.60;;;;;;4180303;28;20598;-74
2021/12/26 07:30:30;;;;;;;2.97;2.40;;;15.90;99.90;;;;;;4180208;28;20219;-73
2021/12/26 07:32:33;;;;;;;2.63;2.03;;;15.90;99.60;;;;;;4171288;28;20244;-74
2021/12/26 07:34:36;;;;;;;3.78;2.60;;;15.90;99.60;;;;;;4163435;28;20229;-74
2021/12/26 07:36:38;;;;;;;3.33;2.72;;;15.90;99.70;;;;;;4163560;28;20266;-74
2021/12/26 07:38:41;;;;;;;2.73;2.37;;;15.90;99.70;;;;;;4163589;28;20558;-73
2021/12/26 07:40:43;;;;;;;4.23;2.60;;;15.90;99.70;;;;;;4163530;28;20220;-74
2021/12/26 07:42:46;;;;;;;3.60;2.58;;;15.90;99.70;;;;;;4163084;28;20627;-73
2021/12/26 07:44:48;;;;;;;3.35;2.40;;;15.90;99.60;;;;;;4165039;28;20232;-74
2021/12/26 07:46:52;;;;;;;3.75;2.65;;;15.90;99.70;;;;;;4167207;28;20220;-73
2021/12/26 07:48:55;;;;;;;3.10;2.50;;;15.80;99.60;;;;;;4167263;28;20262;-74
2021/12/26 07:50:58;;;;;;;3.22;2.50;;;15.90;99.80;;;;;;4167135;28;20216;-73
2021/12/26 07:53:06;;;;;;;3.22;2.60;;;15.80;99.70;;;;;;4167082;28;20216;-74
2021/12/26 07:55:12;;;;;;;2.60;2.30;;;15.80;99.90;;;;;;4166611;28;20544;-74
2021/12/26 07:57:15;;;;;;;3.27;2.37;;;15.80;99.70;;;;;;4166634;28;20216;-74
2021/12/26 07:59:18;;;;;;;2.40;2.20;;;15.80;99.90;;;;;;4166422;28;20351;-74
2021/12/26 08:01:20;;;;;;;3.13;2.70;;;15.80;99.80;;;;;;4166940;28;20216;-73
2021/12/26 08:03:24;;;;;;;2.53;2.33;;;15.80;99.70;;;;;;4166670;28;20282;-74
2021/12/26 08:05:26;;;;;;;3.70;2.75;;;15.80;99.80;;;;;;4166244;28;20750;-74
2021/12/26 08:07:29;;;;;;;3.78;2.42;;;15.80;99.80;;;;;;4166627;28;20982;-73
2021/12/26 08:09:31;;;;;;;1.98;1.80;;;15.80;99.80;;;;;;4166506;28;20221;-74
2021/12/26 08:11:34;;;;;;;3.70;2.08;;;15.80;99.80;;;;;;4166519;28;20220;-74
2021/12/26 08:13:36;;;;;;;2.78;2.38;;;15.80;99.90;;;;;;4166196;28;20220;-74
2021/12/26 08:15:38;;;;;;;3.65;2.30;;;15.80;99.90;;;;;;4166054;28;20247;-74
2021/12/26 08:17:41;;;;;;;3.38;2.47;;;15.80;99.80;;;;;;4166538;28;20221;-74
2021/12/26 08:19:45;;;;;;;3.25;2.40;;;15.80;99.90;;;;;;4166671;28;20282;-74
2021/12/26 08:21:51;;;;;;;2.55;2.20;;;15.80;99.90;;;;;;4166419;28;20216;-74
2021/12/26 08:23:53;;;;;;;3.45;2.38;;;15.80;99.90;;;;;;4166510;28;20628;-73
2021/12/26 08:25:55;;;;;;;3.80;2.40;;;15.80;99.90;;;;;;4166575;28;20232;-74
2021/12/26 08:27:58;;;;;;;2.87;2.30;;;15.80;99.90;;;;;;4166309;28;20728;-74
2021/12/26 08:30:00;;;;;;;2.85;2.35;;;15.80;99.90;;;;;;4166279;28;20216;-74
2021/12/26 08:32:03;;;;;;;2.60;2.10;;;15.70;99.90;;;;;;4170037;28;20290;-74
2021/12/26 08:34:06;;;;;;;2.97;2.50;;;15.80;99.90;;;;;;4183134;28;20216;-74
2021/12/26 08:36:09;;;;;;;2.65;1.95;;;15.80;99.90;;;;;;4183011;28;20212;-74
2021/12/26 08:38:13;;;;;;;2.70;2.20;;;15.70;99.90;;;;;;4182950;28;20219;-74
2021/12/26 08:40:16;;;;;;;3.47;2.40;;;15.80;99.90;;;;;;4182760;28;20270;-74
2021/12/26 08:42:18;;;;;;;3.40;2.47;;;15.70;99.90;;;;;;4182565;28;20254;-74
2021/12/26 08:44:21;;;;;;;2.73;2.40;;;15.70;99.90;;;;;;4182369;28;20633;-74
2021/12/26 08:46:23;;;;;;;3.27;2.40;;;15.70;99.90;;;;;;4182578;28;20224;-74
2021/12/26 08:48:26;;;;;;;2.65;2.10;;;15.70;99.90;;;;;;4182591;28;20672;-74
2021/12/26 08:50:28;;;;;;;4.18;2.60;;;15.70;99.90;;;;;;4182619;28;20220;-74
2021/12/26 08:52:32;;;;;;;4.40;2.87;;;15.70;99.90;;;;;;4182468;28;20216;-74
2021/12/26 08:54:35;;;;;;;3.00;2.07;;;15.70;99.90;;;;;;4182414;28;20258;-74
2021/12/26 08:56:38;;;;;;;2.65;2.15;;;15.70;99.90;;;;;;4181461;28;20269;-74
2021/12/26 08:58:40;;;;;;;3.15;2.63;;;15.70;99.90;;;;;;4182283;28;20266;-74
2021/12/26 09:00:42;;;;;;;2.38;2.17;;;15.70;99.90;;;;;;4173182;28;20668;-74
2021/12/26 09:02:45;;;;;;;2.45;2.25;;;15.70;99.90;;;;;;4181320;28;20215;-74
2021/12/26 09:04:48;;;;;;;2.45;2.13;;;15.70;99.90;;;;;;4182144;28;20282;-74
2021/12/26 09:06:50;;;;;;;2.57;2.20;;;15.70;99.90;;;;;;4182277;28;20216;-74
2021/12/26 09:08:54;;;;;;;2.60;2.22;;;15.70;99.90;;;;;;4182012;28;20739;-73
2021/12/26 09:10:56;;;;;;;2.30;2.10;;;15.70;99.90;;;;;;4181826;28;20269;-74
2021/12/26 09:12:59;;;;;;;2.75;2.15;;;15.70;99.90;;;;;;4182012;28;20212;-73
2021/12/26 09:15:01;;;;;;;3.17;2.50;;;15.70;99.90;;;;;;4182077;28;20561;-73
2021/12/26 09:17:04;;;;;;;2.63;2.43;;;15.70;99.90;;;;;;4181701;28;20282;-74
2021/12/26 09:19:07;;;;;;;2.72;2.17;;;15.70;99.90;;;;;;4181662;28;20216;-74
2021/12/26 09:21:10;;;;;;;3.23;2.30;;;15.70;99.90;;;;;;4182016;28;20238;-74
2021/12/26 09:23:13;;;;;;;2.43;2.23;;;15.70;99.90;;;;;;4181743;28;20215;-74
2021/12/26 09:25:16;;;;;;;2.20;2.00;;;15.70;99.90;;;;;;4182157;28;20220;-74
2021/12/26 09:27:20;;;;;;;2.50;2.22;;;15.70;99.90;;;;;;4181848;28;20673;-74
2021/12/26 09:29:23;;;;;;;3.03;2.20;;;15.70;99.90;;;;;;4181882;28;20212;-74
2021/12/26 09:31:26;;;;;;;2.80;2.20;;;15.70;99.90;;;;;;4181414;28;20228;-74
2021/12/26 09:33:28;;;;;;;2.65;2.33;;;15.70;99.90;;;;;;4165100;28;20286;-74
2021/12/26 09:35:31;;;;;;;2.40;2.20;;;15.70;99.90;;;;;;4165049;28;20212;-74
2021/12/26 09:37:34;;;;;;;2.42;2.22;;;15.70;99.90;;;;;;4165014;28;20220;-74
2021/12/26 09:39:37;;;;;;;3.17;2.22;;;15.70;99.90;;;;;;4164904;28;20278;-73
2021/12/26 09:41:40;;;;;;;2.80;2.20;;;15.70;99.90;;;;;;4164762;28;20220;-74
2021/12/26 09:43:43;;;;;;;2.63;2.20;;;15.70;99.90;;;;;;4164790;28;20669;-74
2021/12/26 09:45:45;;;;;;;2.35;2.15;;;15.70;99.90;;;;;;4164400;28;20236;-73
2021/12/26 09:47:50;;;;;;;3.13;2.30;;;15.70;99.90;;;;;;4165126;28;20270;-74
2021/12/26 09:49:52;;;;;;;2.50;2.13;;;15.70;99.90;;;;;;4164872;28;20222;-73
2021/12/26 09:51:55;;;;;;;3.00;2.28;;;15.70;99.90;;;;;;4164535;28;20266;-74
2021/12/26 09:53:57;;;;;;;2.30;2.10;;;15.70;99.90;;;;;;4165024;28;20220;-74
2021/12/26 09:55:59;;;;;;;2.92;2.20;;;15.60;99.90;;;;;;4164717;28;20661;-74
2021/12/26 09:58:03;;;;;;;2.83;2.50;;;15.60;99.90;;;;;;4164968;28;20677;-74
2021/12/26 10:00:18;;;;;;;3.67;2.42;;;15.60;99.90;;;;;;4164653;28;20220;-73
2021/12/26 10:02:21;;;;;;;3.00;2.23;;;15.60;99.90;;;;;;4164728;28;20224;-74
2021/12/26 10:04:25;;;;;;;2.63;2.10;;;15.70;99.90;;;;;;4164671;28;20220;-74
2021/12/26 10:06:32;;;;;;;3.03;2.30;;;15.60;99.90;;;;;;4165134;28;20237;-74
2021/12/26 10:08:50;;;;;;;2.27;2.00;;;15.60;99.90;;;;;;4163853;28;20220;-74
2021/12/26 10:11:10;;;;;;;2.85;2.17;;;15.60;99.90;;;;;;4164541;28;20607;-74
2021/12/26 10:13:41;;;;;;;3.40;2.50;;;15.60;99.90;;;;;;4164640;28;20220;-74
2021/12/26 10:15:52;;;;;;;2.37;2.17;;;15.60;99.90;;;;;;4164353;28;20212;-73
2021/12/26 10:17:54;;;;;;;2.95;2.03;;;15.60;99.90;;;;;;4164202;28;20291;-74
2021/12/26 10:20:06;;;;;;;3.42;2.38;;;15.60;99.90;;;;;;4164574;28;20274;-73
2021/12/26 10:22:10;;;;;;;2.63;2.30;;;15.70;99.90;;;;;;4164561;28;20266;-74
2021/12/26 10:24:17;;;;;;;3.15;2.25;;;15.70;99.90;;;;;;4164283;28;20221;-74
2021/12/26 10:26:20;;;;;;;2.30;2.10;;;15.70;99.90;;;;;;4163963;28;20705;-74
2021/12/26 10:28:24;;;;;;;2.70;2.00;;;15.60;99.90;;;;;;4163694;28;20336;-74
2021/12/26 10:30:27;;;;;;;2.63;2.17;;;15.70;99.90;;;;;;4164592;28;20216;-74
2021/12/26 10:32:32;;;;;;;3.08;2.45;;;15.70;99.90;;;;;;4171914;28;20231;-74
2021/12/26 10:34:41;;;;;;;2.83;2.33;;;15.70;99.90;;;;;;4180865;28;20212;-74
2021/12/26 10:36:45;;;;;;;2.55;2.20;;;15.70;99.90;;;;;;4180444;28;20332;-74
2021/12/26 10:39:08;;;;;;;2.10;1.90;;;15.70;99.90;;;;;;4180639;28;20625;-74
2021/12/26 10:41:24;;;;;;;3.05;2.10;;;15.70;99.90;;;;;;4180706;28;20261;-74
2021/12/26 10:43:45;;;;;;;3.03;2.43;;;15.70;99.90;;;;;;4180297;28;20277;-73
2021/12/26 10:45:47;;;;;;;3.03;2.13;;;15.70;99.90;;;;;;4179673;28;20236;-74
2021/12/26 10:47:53;;;;;;;2.37;2.17;;;15.70;99.90;;;;;;4178476;28;20211;-74